Time;durP1;ratioP1;P1;durP2;ratioP2;P2;SDS_P1;SDS_P2;PMS_P1;PMS_P2;Temp;Humidity;BMP_temperature;BMP_pressure;BME280_temperature;BME280_humidity;BME280_pressure;Samples;Min_cycle;Max_cycle;Signal;HPM_P1;HPM_P2
2021/07/31 00:01:01;;;;;;;3.75;3.20;;;18.70;60.40;;;;;;5065160;28;20519;-78
2021/07/31 00:03:27;;;;;;;3.25;2.95;;;18.70;60.50;;;;;;5049322;28;20025;-79
2021/07/31 00:05:54;;;;;;;3.58;2.92;;;18.70;60.40;;;;;;5067085;28;20028;-79
2021/07/31 00:08:20;;;;;;;5.07;3.05;;;18.70;60.50;;;;;;5066025;28;20574;-78
2021/07/31 00:10:46;;;;;;;6.13;3.35;;;18.70;60.50;;;;;;5066578;28;20031;-80
2021/07/31 00:13:12;;;;;;;3.28;2.95;;;18.70;60.60;;;;;;5065886;28;20116;-78
2021/07/31 00:15:38;;;;;;;4.97;3.05;;;18.70;60.60;;;;;;5082239;28;20032;-79
2021/07/31 00:18:04;;;;;;;4.35;3.13;;;18.70;60.70;;;;;;5082616;28;20484;-80
2021/07/31 00:20:30;;;;;;;3.38;3.05;;;18.70;60.70;;;;;;5066676;28;20033;-79
2021/07/31 00:22:56;;;;;;;3.33;2.92;;;18.60;61.10;;;;;;5066363;28;20476;-80
2021/07/31 00:25:25;;;;;;;3.88;3.10;;;18.60;60.60;;;;;;5065425;28;20036;-79
2021/07/31 00:27:51;;;;;;;4.53;2.65;;;18.60;60.60;;;;;;5066027;28;20036;-78
2021/07/31 00:30:17;;;;;;;4.32;3.05;;;18.60;60.70;;;;;;5066543;28;20024;-80
2021/07/31 00:32:43;;;;;;;4.68;2.90;;;18.60;60.70;;;;;;5066246;28;20403;-79
2021/07/31 00:35:09;;;;;;;3.50;2.75;;;18.60;60.70;;;;;;5066452;28;20412;-78
2021/07/31 00:37:35;;;;;;;2.92;2.55;;;18.60;60.80;;;;;;5066576;28;20440;-78
2021/07/31 00:40:01;;;;;;;3.33;2.90;;;18.60;61.00;;;;;;5064700;28;20215;-78
2021/07/31 00:42:27;;;;;;;3.17;2.85;;;18.50;60.70;;;;;;5066433;28;20484;-78
2021/07/31 00:44:53;;;;;;;3.35;3.05;;;18.50;60.70;;;;;;5081685;28;20058;-78
2021/07/31 00:47:19;;;;;;;3.30;3.00;;;18.50;60.80;;;;;;5064760;28;20411;-78
2021/07/31 00:49:46;;;;;;;4.07;3.13;;;18.40;60.70;;;;;;5064588;28;20025;-79
2021/07/31 00:52:11;;;;;;;4.00;2.78;;;18.40;60.70;;;;;;5065507;28;20028;-80
2021/07/31 00:54:38;;;;;;;2.63;2.40;;;18.40;60.80;;;;;;5066670;28;20032;-79
2021/07/31 00:57:04;;;;;;;3.70;2.67;;;18.40;60.90;;;;;;5065978;28;20552;-79
2021/07/31 00:59:44;;;;;;;3.40;3.10;;;18.40;60.90;;;;;;5064735;28;20105;-79
2021/07/31 01:02:11;;;;;;;3.63;3.00;;;18.30;60.80;;;;;;5065627;28;20024;-79
2021/07/31 01:04:37;;;;;;;3.40;2.80;;;18.30;60.80;;;;;;5064896;28;20060;-78
2021/07/31 01:07:03;;;;;;;3.25;2.63;;;18.30;60.90;;;;;;5064723;28;20032;-80
2021/07/31 01:09:29;;;;;;;4.95;3.33;;;18.30;60.90;;;;;;5066068;28;20400;-77
2021/07/31 01:11:57;;;;;;;4.72;3.33;;;18.30;60.90;;;;;;5064537;28;20032;-77
2021/07/31 01:14:23;;;;;;;3.00;2.70;;;18.20;60.80;;;;;;5066237;28;20067;-78
2021/07/31 01:16:50;;;;;;;5.25;3.30;;;18.20;60.90;;;;;;5064805;28;20031;-77
2021/07/31 01:19:16;;;;;;;3.83;3.22;;;18.20;60.90;;;;;;5064140;28;20722;-77
2021/07/31 01:21:45;;;;;;;3.75;3.22;;;18.20;61.00;;;;;;5066735;28;20127;-81
2021/07/31 01:24:22;;;;;;;3.45;2.90;;;18.20;61.00;;;;;;5066211;28;20491;-78
2021/07/31 01:26:49;;;;;;;3.10;2.80;;;18.20;61.00;;;;;;5066096;28;20112;-77
2021/07/31 01:29:17;;;;;;;2.72;2.53;;;18.20;61.00;;;;;;5065892;28;20089;-76
2021/07/31 01:31:44;;;;;;;4.13;2.65;;;18.20;61.00;;;;;;5059851;28;20070;-77
2021/07/31 01:34:11;;;;;;;2.83;2.55;;;18.20;61.10;;;;;;5053880;28;20037;-76
2021/07/31 01:36:37;;;;;;;2.95;2.65;;;18.20;61.10;;;;;;5047930;28;20083;-79
2021/07/31 01:39:04;;;;;;;2.45;2.22;;;18.20;61.10;;;;;;5071821;28;20036;-76
2021/07/31 01:41:32;;;;;;;3.75;2.90;;;18.20;61.20;;;;;;5065969;28;20032;-76
2021/07/31 01:43:59;;;;;;;2.85;2.50;;;18.20;61.20;;;;;;5066362;28;20024;-80
2021/07/31 01:46:25;;;;;;;3.22;2.83;;;18.20;61.20;;;;;;5063877;28;20540;-78
2021/07/31 01:48:53;;;;;;;3.10;2.53;;;18.20;61.20;;;;;;5060405;28;20479;-77
2021/07/31 01:51:20;;;;;;;3.03;2.67;;;18.20;61.20;;;;;;5051941;28;20025;-77
2021/07/31 01:53:47;;;;;;;3.08;2.58;;;18.10;61.10;;;;;;5066759;28;20032;-77
2021/07/31 01:56:14;;;;;;;5.75;2.90;;;18.20;61.80;;;;;;5066517;28;20036;-78
2021/07/31 01:58:40;;;;;;;3.10;2.60;;;18.10;61.20;;;;;;5067470;28;20036;-79
2021/07/31 02:01:07;;;;;;;3.80;2.90;;;18.10;61.20;;;;;;5066842;28;20155;-76
2021/07/31 02:03:33;;;;;;;3.00;2.67;;;18.20;61.40;;;;;;5065838;28;20025;-79
2021/07/31 02:06:20;;;;;;;4.78;2.60;;;18.10;61.20;;;;;;5018557;28;20044;-79
2021/07/31 02:08:48;;;;;;;3.30;3.00;;;18.10;61.20;;;;;;5048998;28;20041;-78
2021/07/31 02:11:14;;;;;;;3.35;2.58;;;18.10;61.30;;;;;;5053058;28;20025;-79
2021/07/31 02:13:40;;;;;;;3.30;3.00;;;18.00;61.10;;;;;;5054244;28;20037;-80
2021/07/31 02:16:08;;;;;;;3.47;2.90;;;18.00;61.20;;;;;;5069375;28;20029;-78
2021/07/31 02:18:35;;;;;;;3.08;2.78;;;18.00;61.20;;;;;;5052742;28;20476;-79
2021/07/31 02:21:04;;;;;;;6.03;2.67;;;18.00;61.20;;;;;;5054262;28;20041;-78
2021/07/31 02:23:49;;;;;;;3.33;2.80;;;18.00;61.20;;;;;;5053809;28;20123;-78
2021/07/31 02:26:18;;;;;;;2.95;2.45;;;18.00;61.30;;;;;;5053985;28;20037;-78
2021/07/31 02:28:58;;;;;;;3.17;2.85;;;18.00;61.30;;;;;;5069223;28;20021;-81
2021/07/31 02:31:25;;;;;;;3.65;2.40;;;18.00;61.30;;;;;;5068497;28;20396;-79
2021/07/31 02:33:52;;;;;;;3.08;2.80;;;18.00;61.30;;;;;;5052772;28;20052;-79
2021/07/31 02:36:20;;;;;;;3.15;2.85;;;17.90;61.20;;;;;;5056962;28;20020;-80
2021/07/31 02:38:56;;;;;;;3.22;2.70;;;17.90;61.20;;;;;;5072089;28;20499;-80
2021/07/31 02:41:22;;;;;;;3.08;2.65;;;17.90;61.50;;;;;;5074055;28;20083;-81
2021/07/31 02:43:48;;;;;;;4.63;2.90;;;17.90;61.40;;;;;;5072049;28;20033;-80
2021/07/31 02:46:15;;;;;;;3.42;3.13;;;17.90;61.40;;;;;;5072443;28;20174;-79
2021/07/31 02:48:41;;;;;;;4.00;2.70;;;17.90;61.40;;;;;;5073383;28;20057;-79
2021/07/31 02:51:13;;;;;;;3.05;2.63;;;17.90;61.50;;;;;;5072804;28;20493;-80
2021/07/31 02:54:10;;;;;;;3.83;2.70;;;17.80;61.40;;;;;;5085111;28;20028;-81
2021/07/31 02:56:36;;;;;;;3.33;3.03;;;17.80;61.30;;;;;;5088750;28;20540;-81
2021/07/31 02:59:07;;;;;;;3.10;2.78;;;17.80;61.40;;;;;;5071972;28;20040;-78
2021/07/31 03:01:36;;;;;;;3.22;2.92;;;17.80;61.40;;;;;;5072398;28;20376;-78
2021/07/31 03:04:03;;;;;;;3.13;2.75;;;17.80;61.40;;;;;;5071522;28;20037;-78
2021/07/31 03:06:29;;;;;;;3.70;2.70;;;17.80;61.50;;;;;;5089841;28;20036;-77
2021/07/31 03:08:55;;;;;;;3.55;2.58;;;17.80;61.50;;;;;;5072330;28;20137;-76
2021/07/31 03:11:23;;;;;;;3.17;2.72;;;17.80;61.50;;;;;;5071955;28;20035;-78
2021/07/31 03:13:51;;;;;;;2.80;2.60;;;17.70;61.40;;;;;;5072187;28;20040;-77
2021/07/31 03:16:21;;;;;;;3.05;2.33;;;17.70;61.40;;;;;;5071800;28;20028;-77
2021/07/31 03:18:53;;;;;;;2.65;2.42;;;17.80;61.60;;;;;;5088572;28;20033;-77
2021/07/31 03:21:19;;;;;;;3.25;2.78;;;17.70;61.50;;;;;;5071269;28;20519;-79
2021/07/31 03:24:08;;;;;;;2.50;2.30;;;17.70;61.60;;;;;;5064382;28;20511;-78
2021/07/31 03:26:36;;;;;;;4.00;2.47;;;17.70;61.60;;;;;;5071525;28;20095;-79
2021/07/31 03:29:05;;;;;;;2.75;2.40;;;17.70;61.60;;;;;;5071576;28;20499;-77
2021/07/31 03:31:31;;;;;;;3.38;2.95;;;17.70;61.60;;;;;;5071557;28;20434;-77
2021/07/31 03:34:00;;;;;;;2.88;2.30;;;17.70;61.80;;;;;;5071122;28;20101;-76
2021/07/31 03:36:27;;;;;;;3.42;3.10;;;17.70;61.70;;;;;;5087908;28;20025;-77
2021/07/31 03:39:07;;;;;;;2.92;2.65;;;17.70;61.70;;;;;;5072517;28;20052;-75
2021/07/31 03:41:36;;;;;;;2.30;2.10;;;17.70;61.70;;;;;;5073183;28;20024;-78
2021/07/31 03:44:03;;;;;;;3.00;2.35;;;17.70;61.80;;;;;;5071308;28;20025;-80
2021/07/31 03:46:33;;;;;;;4.20;2.58;;;17.70;61.80;;;;;;5071029;28;20509;-78
2021/07/31 03:49:00;;;;;;;4.18;2.88;;;17.70;61.80;;;;;;5071105;28;20132;-77
2021/07/31 03:51:29;;;;;;;3.03;2.72;;;17.70;61.80;;;;;;5071466;28;20029;-80
2021/07/31 03:53:56;;;;;;;3.72;2.95;;;17.70;61.90;;;;;;5071092;28;20145;-80
2021/07/31 03:56:23;;;;;;;3.53;3.00;;;17.70;61.90;;;;;;5072262;28;20020;-78
2021/07/31 03:58:54;;;;;;;2.50;2.28;;;17.70;61.90;;;;;;5070990;28;20508;-79
2021/07/31 04:01:24;;;;;;;2.70;2.50;;;17.70;62.00;;;;;;5070780;28;20683;-77
2021/07/31 04:03:53;;;;;;;2.72;2.38;;;17.70;62.00;;;;;;5070556;28;20538;-77
2021/07/31 04:06:19;;;;;;;2.88;2.58;;;17.70;62.00;;;;;;5072197;28;20384;-77
2021/07/31 04:09:04;;;;;;;2.83;2.50;;;17.60;61.90;;;;;;5072011;28;20059;-80
2021/07/31 04:11:49;;;;;;;3.85;2.50;;;17.60;61.90;;;;;;5072350;28;20032;-78
2021/07/31 04:14:33;;;;;;;2.97;2.67;;;17.60;61.90;;;;;;5085306;28;20032;-77
2021/07/31 04:17:08;;;;;;;4.20;2.50;;;17.60;61.90;;;;;;5071068;28;20046;-80
2021/07/31 04:19:35;;;;;;;3.33;2.53;;;17.60;61.90;;;;;;5071463;28;20064;-78
2021/07/31 04:22:02;;;;;;;4.75;2.83;;;17.60;62.00;;;;;;5070711;28;20060;-78
2021/07/31 04:24:36;;;;;;;3.45;2.97;;;17.60;62.00;;;;;;5070377;28;20506;-80
2021/07/31 04:27:04;;;;;;;4.18;3.15;;;17.60;62.00;;;;;;5071574;28;20067;-78
2021/07/31 04:29:30;;;;;;;4.07;2.80;;;17.60;62.00;;;;;;5071465;28;20078;-78
2021/07/31 04:31:56;;;;;;;3.55;3.25;;;17.60;62.10;;;;;;5071607;28;20036;-80
2021/07/31 04:34:22;;;;;;;3.70;3.33;;;17.60;62.10;;;;;;5086358;28;20036;-77
2021/07/31 04:36:49;;;;;;;3.80;3.33;;;17.60;62.10;;;;;;5071227;28;20526;-76
2021/07/31 04:39:15;;;;;;;3.97;3.40;;;17.60;62.20;;;;;;5071374;28;20025;-76
2021/07/31 04:41:41;;;;;;;3.53;3.22;;;17.60;62.10;;;;;;5071605;28;20036;-77
2021/07/31 04:44:07;;;;;;;3.47;3.17;;;17.60;62.20;;;;;;5071161;28;20028;-76
2021/07/31 04:46:33;;;;;;;5.72;3.47;;;17.60;62.20;;;;;;5071576;28;20041;-76
2021/07/31 04:48:59;;;;;;;3.92;3.25;;;17.60;62.20;;;;;;5066058;28;20036;-77
2021/07/31 04:51:25;;;;;;;3.78;3.40;;;17.60;62.30;;;;;;5067787;28;20027;-77
2021/07/31 04:53:51;;;;;;;3.15;2.85;;;17.50;62.10;;;;;;5067584;28;20029;-76
2021/07/31 04:56:18;;;;;;;3.83;3.50;;;17.60;62.30;;;;;;5068419;28;20052;-76
2021/07/31 04:58:44;;;;;;;4.95;3.10;;;17.60;62.30;;;;;;5067358;28;20036;-77
2021/07/31 05:01:09;;;;;;;4.07;3.28;;;17.60;62.30;;;;;;5067655;28;20040;-78
2021/07/31 05:03:35;;;;;;;3.85;3.45;;;17.60;62.40;;;;;;5065899;28;20298;-76
2021/07/31 05:06:06;;;;;;;4.63;3.70;;;17.60;62.40;;;;;;5064312;28;20059;-76
2021/07/31 05:08:32;;;;;;;3.40;3.10;;;17.50;62.30;;;;;;5065633;28;20087;-76
2021/07/31 05:10:58;;;;;;;4.10;3.70;;;17.60;62.40;;;;;;5065952;28;20056;-77
2021/07/31 05:13:24;;;;;;;3.45;3.08;;;17.60;62.50;;;;;;5065971;28;20806;-76
2021/07/31 05:15:50;;;;;;;6.53;3.53;;;17.60;62.40;;;;;;5066106;28;20094;-78
2021/07/31 05:18:16;;;;;;;3.50;3.00;;;17.60;62.40;;;;;;5066262;28;20499;-76
2021/07/31 05:20:44;;;;;;;5.25;3.20;;;17.60;62.50;;;;;;5066215;28;20078;-76
2021/07/31 05:23:14;;;;;;;3.65;3.03;;;17.60;62.50;;;;;;5065706;28;20035;-77
2021/07/31 05:25:44;;;;;;;3.60;3.15;;;17.60;62.50;;;;;;5064138;28;20089;-77
2021/07/31 05:28:11;;;;;;;4.97;3.20;;;17.60;62.50;;;;;;5066199;28;20469;-77
2021/07/31 05:30:38;;;;;;;4.10;3.20;;;17.60;62.50;;;;;;5065036;28;20036;-76
2021/07/31 05:33:05;;;;;;;3.50;3.20;;;17.60;62.50;;;;;;5064246;28;20780;-76
2021/07/31 05:35:31;;;;;;;4.68;3.38;;;17.60;62.50;;;;;;5047376;28;20025;-76
2021/07/31 05:37:57;;;;;;;4.63;3.40;;;17.60;62.50;;;;;;5065344;28;20047;-76
2021/07/31 05:40:23;;;;;;;3.67;3.38;;;17.60;62.50;;;;;;5065448;28;20491;-76
2021/07/31 05:42:49;;;;;;;3.97;3.45;;;17.60;62.50;;;;;;5065773;28;20051;-77
2021/07/31 05:45:15;;;;;;;3.75;3.38;;;17.70;62.70;;;;;;5067552;28;20048;-76
2021/07/31 05:47:41;;;;;;;4.82;3.28;;;17.70;62.70;;;;;;5063171;28;20028;-76
2021/07/31 05:50:08;;;;;;;5.07;3.15;;;17.70;62.70;;;;;;5069444;28;20379;-78
2021/07/31 05:52:35;;;;;;;5.20;3.58;;;17.70;62.70;;;;;;5067917;28;20035;-76
2021/07/31 05:55:02;;;;;;;3.50;2.92;;;17.80;62.90;;;;;;5068142;28;20267;-76
2021/07/31 05:57:28;;;;;;;3.90;3.20;;;17.70;62.70;;;;;;5067762;28;20025;-78
2021/07/31 05:59:55;;;;;;;4.32;3.00;;;17.80;62.90;;;;;;5068307;28;20468;-77
2021/07/31 06:02:20;;;;;;;4.20;3.60;;;17.80;62.80;;;;;;5069288;28;20028;-77
2021/07/31 06:04:46;;;;;;;3.45;3.13;;;17.80;62.90;;;;;;5069356;28;20502;-77
2021/07/31 06:07:12;;;;;;;2.97;2.72;;;17.90;63.00;;;;;;5068641;28;20037;-76
2021/07/31 06:09:39;;;;;;;3.05;2.75;;;17.90;63.00;;;;;;5068995;28;20060;-78
2021/07/31 06:12:07;;;;;;;5.00;2.83;;;17.90;63.00;;;;;;5069054;28;20020;-79
2021/07/31 06:14:40;;;;;;;3.35;3.05;;;17.90;62.90;;;;;;5069073;28;20025;-77
2021/07/31 06:17:06;;;;;;;3.50;3.17;;;18.00;63.10;;;;;;5068175;28;20450;-78
2021/07/31 06:19:33;;;;;;;3.63;3.10;;;18.00;63.00;;;;;;5068784;28;20029;-78
2021/07/31 06:22:01;;;;;;;3.83;3.50;;;18.10;63.10;;;;;;5068726;28;20579;-78
2021/07/31 06:24:28;;;;;;;4.00;3.45;;;18.10;63.10;;;;;;5069071;28;20480;-76
2021/07/31 06:26:54;;;;;;;3.58;2.90;;;18.10;63.10;;;;;;5061763;28;20453;-75
2021/07/31 06:29:21;;;;;;;3.17;2.88;;;18.10;63.00;;;;;;5066851;28;20115;-75
2021/07/31 06:31:47;;;;;;;3.15;2.83;;;18.10;63.00;;;;;;5069710;28;20041;-79
2021/07/31 06:34:14;;;;;;;3.47;2.63;;;18.20;63.20;;;;;;5070120;28;20029;-82
2021/07/31 06:36:42;;;;;;;3.17;2.83;;;18.20;63.20;;;;;;5067318;28;20043;-79
2021/07/31 06:39:09;;;;;;;3.78;2.85;;;18.20;63.20;;;;;;5067621;28;20028;-81
2021/07/31 06:41:35;;;;;;;3.67;3.05;;;18.20;63.20;;;;;;5068854;28;20036;-80
2021/07/31 06:44:01;;;;;;;4.82;3.17;;;18.30;63.30;;;;;;5059774;28;20184;-81
2021/07/31 06:46:28;;;;;;;4.15;3.60;;;18.30;63.30;;;;;;5059826;28;20153;-79
2021/07/31 06:48:55;;;;;;;4.70;3.95;;;18.40;63.50;;;;;;5056491;28;20123;-79
2021/07/31 06:51:22;;;;;;;5.95;3.53;;;18.40;63.50;;;;;;5066666;28;20020;-82
2021/07/31 06:53:49;;;;;;;5.70;3.78;;;18.40;63.40;;;;;;5067394;28;20090;-81
2021/07/31 06:56:15;;;;;;;4.72;3.90;;;18.50;63.60;;;;;;5067706;28;20020;-78
2021/07/31 06:58:42;;;;;;;5.18;4.15;;;18.50;63.50;;;;;;5066895;28;20490;-80
2021/07/31 07:01:17;;;;;;;4.07;3.70;;;18.60;63.70;;;;;;5068611;28;20166;-80
2021/07/31 07:03:49;;;;;;;4.45;3.95;;;18.60;63.70;;;;;;5055639;28;20332;-79
2021/07/31 07:06:15;;;;;;;4.25;3.80;;;18.60;63.60;;;;;;5061508;28;20281;-79
2021/07/31 07:08:41;;;;;;;4.32;3.80;;;18.70;63.80;;;;;;5061055;28;20123;-80
2021/07/31 07:11:13;;;;;;;6.57;4.03;;;18.70;64.30;;;;;;5058435;28;20075;-80
2021/07/31 07:13:39;;;;;;;4.18;3.72;;;18.70;63.80;;;;;;5061933;28;20032;-79
2021/07/31 07:16:06;;;;;;;4.18;3.50;;;18.80;63.80;;;;;;5067508;28;20157;-79
2021/07/31 07:18:32;;;;;;;4.13;3.72;;;18.80;63.80;;;;;;5061734;28;20072;-79
2021/07/31 07:21:01;;;;;;;5.55;3.72;;;18.90;64.00;;;;;;5056686;28;20068;-77
2021/07/31 07:23:27;;;;;;;3.83;2.83;;;18.90;63.90;;;;;;5059996;28;20043;-79
2021/07/31 07:25:53;;;;;;;5.03;3.50;;;19.00;64.00;;;;;;5068606;28;20036;-78
2021/07/31 07:28:19;;;;;;;3.65;3.25;;;19.00;64.00;;;;;;5067605;28;20055;-79
2021/07/31 07:30:46;;;;;;;5.55;3.47;;;19.00;63.90;;;;;;5066633;28;20388;-78
2021/07/31 07:33:12;;;;;;;3.40;3.10;;;19.10;64.00;;;;;;5068600;28;20318;-79
2021/07/31 07:35:39;;;;;;;3.28;2.92;;;19.10;64.00;;;;;;5066770;28;20029;-79
2021/07/31 07:38:05;;;;;;;3.42;3.13;;;19.20;64.10;;;;;;5068088;28;20028;-78
2021/07/31 07:40:31;;;;;;;3.47;3.17;;;19.30;64.20;;;;;;5068009;28;20047;-78
2021/07/31 07:42:57;;;;;;;2.97;2.67;;;19.30;64.10;;;;;;5067809;28;20024;-81
2021/07/31 07:45:23;;;;;;;3.58;3.15;;;19.50;64.30;;;;;;5066586;28;20024;-78
2021/07/31 07:47:49;;;;;;;2.95;2.63;;;19.50;64.20;;;;;;5066777;28;20048;-77
2021/07/31 07:50:15;;;;;;;5.05;2.75;;;19.60;64.20;;;;;;5055682;28;20037;-78
2021/07/31 07:52:41;;;;;;;3.42;2.80;;;19.70;64.80;;;;;;5056652;28;20033;-77
2021/07/31 07:55:08;;;;;;;4.72;3.03;;;19.80;64.30;;;;;;5064117;28;20067;-77
2021/07/31 07:57:34;;;;;;;3.60;3.03;;;19.80;64.30;;;;;;5054172;28;20109;-78
2021/07/31 08:00:00;;;;;;;3.97;2.95;;;19.90;64.30;;;;;;5065926;28;20640;-77
2021/07/31 08:02:26;;;;;;;4.15;3.08;;;20.10;64.60;;;;;;5058307;28;20040;-77
2021/07/31 08:04:52;;;;;;;2.65;2.40;;;20.30;64.80;;;;;;5057740;28;20424;-75
2021/07/31 08:07:18;;;;;;;3.78;2.90;;;20.50;64.90;;;;;;5055647;28;20036;-75
2021/07/31 08:09:44;;;;;;;3.03;2.20;;;20.70;64.90;;;;;;5066726;28;20423;-78
2021/07/31 08:12:10;;;;;;;3.15;2.63;;;21.00;65.10;;;;;;5059979;28;20510;-77
2021/07/31 08:14:36;;;;;;;3.08;2.35;;;21.20;65.10;;;;;;5063217;28;20033;-75
2021/07/31 08:17:03;;;;;;;4.28;2.88;;;21.40;65.20;;;;;;5061752;28;20028;-76
2021/07/31 08:19:29;;;;;;;3.08;2.33;;;21.60;65.20;;;;;;5064745;28;20040;-76
2021/07/31 08:21:55;;;;;;;2.42;2.03;;;21.80;65.20;;;;;;5064535;28;20040;-77
2021/07/31 08:24:21;;;;;;;3.13;2.20;;;21.90;65.10;;;;;;5065170;28;20408;-75
2021/07/31 08:26:48;;;;;;;3.15;2.38;;;22.10;65.30;;;;;;5065007;28;20028;-76
2021/07/31 08:29:14;;;;;;;2.20;2.00;;;22.20;65.10;;;;;;5065213;28;20032;-78
2021/07/31 08:31:43;;;;;;;2.40;2.15;;;22.30;65.00;;;;;;5063847;28;20048;-75
2021/07/31 08:34:12;;;;;;;2.97;1.88;;;22.40;64.90;;;;;;5063887;28;20060;-75
2021/07/31 08:36:38;;;;;;;2.30;2.10;;;22.50;64.80;;;;;;5066586;28;20028;-74
2021/07/31 08:39:05;;;;;;;2.25;1.98;;;22.60;64.80;;;;;;5066158;28;20039;-77
2021/07/31 08:41:33;;;;;;;3.47;2.05;;;22.80;64.80;;;;;;5066384;28;20189;-74
2021/07/31 08:44:01;;;;;;;4.03;2.25;;;23.00;64.80;;;;;;5064746;28;20103;-78
2021/07/31 08:46:28;;;;;;;4.43;1.92;;;23.10;64.60;;;;;;5066412;28;20036;-77
2021/07/31 08:48:55;;;;;;;2.13;1.90;;;23.20;64.50;;;;;;5063860;28;20028;-78
2021/07/31 08:51:22;;;;;;;4.78;2.35;;;23.30;64.40;;;;;;5065563;28;20032;-76
2021/07/31 08:53:48;;;;;;;3.22;2.20;;;23.30;63.60;;;;;;5066895;28;20029;-77
2021/07/31 08:56:14;;;;;;;4.78;2.58;;;23.30;62.80;;;;;;5066421;28;20078;-76
2021/07/31 08:58:40;;;;;;;3.28;2.97;;;23.30;62.30;;;;;;5066069;28;20414;-77
2021/07/31 09:01:07;;;;;;;3.30;3.00;;;23.20;61.90;;;;;;5057540;28;20032;-79
2021/07/31 09:03:47;;;;;;;5.70;3.53;;;23.10;61.60;;;;;;5044655;28;20056;-78
2021/07/31 09:06:34;;;;;;;7.78;3.60;;;22.90;61.00;;;;;;5045197;28;20029;-75
2021/07/31 09:09:00;;;;;;;4.97;2.60;;;22.90;61.00;;;;;;5074470;28;20257;-74
2021/07/31 09:11:27;;;;;;;3.70;2.70;;;22.80;60.80;;;;;;5057957;28;20378;-75
2021/07/31 09:14:12;;;;;;;3.53;2.80;;;22.80;60.90;;;;;;5064094;28;20656;-75
2021/07/31 09:16:39;;;;;;;3.97;2.55;;;22.70;60.70;;;;;;5065784;28;20090;-74
2021/07/31 09:19:08;;;;;;;4.63;2.70;;;22.60;60.60;;;;;;5063884;28;20527;-74
2021/07/31 09:21:35;;;;;;;4.65;2.90;;;22.60;60.50;;;;;;5048323;28;20052;-74
2021/07/31 09:24:01;;;;;;;4.32;3.03;;;22.60;60.60;;;;;;5064853;28;20082;-74
2021/07/31 09:26:38;;;;;;;4.47;3.00;;;22.50;60.30;;;;;;5064867;28;20044;-74
2021/07/31 09:29:08;;;;;;;5.93;3.30;;;22.50;60.10;;;;;;5066337;28;20077;-74
2021/07/31 09:31:59;;;;;;;5.60;3.75;;;22.50;60.20;;;;;;5047785;28;20466;-76
2021/07/31 09:34:31;;;;;;;6.05;3.08;;;22.50;60.20;;;;;;5054723;28;20036;-74
2021/07/31 09:37:10;;;;;;;5.20;3.20;;;22.50;60.10;;;;;;5065612;28;20025;-75
2021/07/31 09:40:06;;;;;;;4.65;3.80;;;22.60;60.10;;;;;;5066514;28;20028;-74
2021/07/31 09:42:40;;;;;;;5.28;3.65;;;22.80;60.10;;;;;;5056638;28;20044;-77
2021/07/31 09:45:11;;;;;;;5.47;2.95;;;22.90;59.90;;;;;;5064482;28;20585;-74
2021/07/31 09:47:56;;;;;;;4.57;2.60;;;23.10;59.90;;;;;;5066000;28;20525;-75
2021/07/31 09:50:34;;;;;;;10.18;4.43;;;23.20;59.70;;;;;;5065936;28;20541;-75
2021/07/31 09:53:14;;;;;;;4.57;3.78;;;23.40;59.60;;;;;;5065710;28;20064;-76
2021/07/31 09:55:49;;;;;;;5.32;4.82;;;23.60;59.50;;;;;;5065380;28;20111;-75
2021/07/31 09:58:20;;;;;;;5.43;4.93;;;23.80;59.40;;;;;;5065593;28;20037;-75
2021/07/31 10:00:47;;;;;;;7.43;5.55;;;24.00;59.40;;;;;;5064213;28;20041;-74
2021/07/31 10:03:14;;;;;;;8.50;6.00;;;24.00;59.10;;;;;;5064585;28;20116;-74
2021/07/31 10:05:43;;;;;;;6.15;5.55;;;24.10;59.00;;;;;;5064446;28;20032;-75
2021/07/31 10:08:12;;;;;;;13.13;6.72;;;24.10;58.80;;;;;;5065655;28;20051;-79
2021/07/31 10:10:40;;;;;;;6.97;5.88;;;24.10;58.70;;;;;;5065635;28;20071;-80
2021/07/31 10:13:06;;;;;;;6.07;5.53;;;24.10;58.60;;;;;;5065134;28;20033;-79
2021/07/31 10:15:33;;;;;;;7.00;6.25;;;24.10;58.50;;;;;;5064301;28;20036;-81
2021/07/31 10:18:08;;;;;;;6.13;4.53;;;24.10;58.50;;;;;;5064236;28;20048;-79
2021/07/31 10:20:34;;;;;;;4.35;3.95;;;24.10;58.50;;;;;;5064257;28;20040;-79
2021/07/31 10:23:00;;;;;;;6.40;4.13;;;24.10;58.40;;;;;;5065456;28;20032;-79
2021/07/31 10:25:26;;;;;;;6.90;3.70;;;24.20;58.40;;;;;;5065222;28;20039;-79
2021/07/31 10:28:12;;;;;;;8.73;3.70;;;24.20;58.00;;;;;;5065757;28;20403;-78
2021/07/31 10:30:41;;;;;;;5.10;3.92;;;24.30;57.90;;;;;;5065218;28;20029;-78
2021/07/31 10:33:44;;;;;;;6.82;3.63;;;24.30;57.60;;;;;;5068732;28;20419;-78
2021/07/31 10:36:27;;;;;;;5.50;3.65;;;24.40;57.40;;;;;;5068876;28;20032;-78
2021/07/31 10:38:53;;;;;;;6.68;3.33;;;24.50;57.30;;;;;;5068827;28;20028;-80
2021/07/31 10:41:53;;;;;;;6.05;2.92;;;24.50;57.30;;;;;;5068868;28;20064;-79
2021/07/31 10:44:19;;;;;;;5.13;2.88;;;24.40;57.00;;;;;;5067468;28;20032;-80
2021/07/31 10:46:45;;;;;;;3.40;2.72;;;24.30;56.90;;;;;;5067632;28;20472;-81
2021/07/31 10:49:37;;;;;;;5.57;2.80;;;24.30;56.90;;;;;;5067589;28;20541;-80
2021/07/31 10:52:03;;;;;;;4.88;2.47;;;24.30;56.90;;;;;;5067470;28;20040;-80
2021/07/31 10:54:58;;;;;;;2.30;1.98;;;24.30;56.90;;;;;;5068822;28;20456;-79
2021/07/31 10:57:52;;;;;;;3.08;2.30;;;24.30;56.70;;;;;;5068534;28;20444;-78
2021/07/31 11:00:34;;;;;;;4.50;2.58;;;24.30;56.90;;;;;;5068377;28;20083;-80
2021/07/31 11:03:25;;;;;;;5.43;2.65;;;24.30;56.60;;;;;;5069347;28;20033;-80
2021/07/31 11:05:54;;;;;;;7.97;2.95;;;24.30;56.80;;;;;;5067257;28;20025;-80
2021/07/31 11:08:25;;;;;;;7.90;2.97;;;24.30;56.70;;;;;;5067129;28;20045;-82
2021/07/31 11:10:54;;;;;;;5.03;3.00;;;24.30;56.60;;;;;;5067444;28;20036;-83
2021/07/31 11:13:20;;;;;;;7.13;2.75;;;24.20;56.50;;;;;;5068423;28;20462;-82
2021/07/31 11:16:07;;;;;;;5.35;2.53;;;24.20;56.40;;;;;;5068611;28;20131;-82
2021/07/31 11:18:36;;;;;;;5.05;2.95;;;24.20;56.40;;;;;;5061012;28;20029;-81
2021/07/31 11:21:19;;;;;;;6.68;3.40;;;24.20;56.60;;;;;;5068924;28;20048;-81
2021/07/31 11:23:53;;;;;;;7.10;3.90;;;24.50;57.00;;;;;;5067888;28;20525;-82
2021/07/31 11:26:39;;;;;;;7.00;4.35;;;24.60;56.90;;;;;;5066544;28;20392;-77
2021/07/31 11:29:12;;;;;;;4.28;3.83;;;24.80;56.70;;;;;;5057911;28;20029;-75
2021/07/31 11:31:39;;;;;;;5.25;4.10;;;24.90;56.50;;;;;;5057136;28;20039;-77
2021/07/31 11:34:09;;;;;;;4.93;4.38;;;25.10;56.60;;;;;;5060070;28;20036;-79
2021/07/31 11:36:39;;;;;;;6.85;3.97;;;25.10;56.20;;;;;;5061499;28;20084;-78
2021/07/31 11:39:06;;;;;;;5.45;2.58;;;25.20;56.10;;;;;;5066100;28;20426;-78
2021/07/31 11:41:43;;;;;;;6.00;2.22;;;25.30;56.00;;;;;;5061454;28;20102;-77
2021/07/31 11:44:10;;;;;;;5.47;1.90;;;25.40;55.60;;;;;;5065649;28;20028;-76
2021/07/31 11:46:47;;;;;;;5.32;2.35;;;25.40;55.60;;;;;;5067879;28;20025;-79
2021/07/31 11:49:26;;;;;;;3.55;1.90;;;25.50;55.60;;;;;;5071496;28;20029;-76
2021/07/31 11:51:54;;;;;;;7.88;2.70;;;25.50;55.20;;;;;;5059615;28;20036;-80
2021/07/31 11:54:21;;;;;;;6.25;2.20;;;25.50;55.10;;;;;;5054248;28;20039;-78
2021/07/31 11:56:48;;;;;;;6.05;2.85;;;25.50;55.10;;;;;;5061820;28;20028;-80
2021/07/31 11:59:32;;;;;;;6.53;3.30;;;25.40;55.00;;;;;;5068536;28;20029;-78
2021/07/31 12:01:58;;;;;;;4.90;2.72;;;25.40;54.70;;;;;;5071236;28;20087;-81
2021/07/31 12:04:42;;;;;;;4.80;2.55;;;25.40;54.80;;;;;;5050181;28;20477;-80
2021/07/31 12:07:13;;;;;;;5.97;2.97;;;25.30;54.50;;;;;;5063054;28;20056;-82
2021/07/31 12:09:41;;;;;;;4.20;2.03;;;25.30;54.60;;;;;;5053325;28;20595;-78
2021/07/31 12:12:24;;;;;;;3.45;1.80;;;25.40;54.80;;;;;;5061114;28;20193;-75
2021/07/31 12:15:10;;;;;;;7.00;2.80;;;25.40;54.40;;;;;;5073392;28;20040;-81
2021/07/31 12:17:45;;;;;;;5.45;2.33;;;25.50;54.50;;;;;;5049198;28;20408;-80
2021/07/31 12:20:11;;;;;;;5.15;2.17;;;25.50;54.40;;;;;;5064807;28;20275;-74
2021/07/31 12:22:50;;;;;;;7.28;2.50;;;25.50;54.50;;;;;;5066664;28;20062;-75
2021/07/31 12:25:18;;;;;;;6.78;1.88;;;25.50;54.40;;;;;;5067661;28;20646;-74
2021/07/31 12:27:55;;;;;;;6.55;2.08;;;25.50;54.50;;;;;;5056281;28;20578;-76
2021/07/31 12:30:26;;;;;;;5.65;2.55;;;25.50;54.50;;;;;;5064063;28;20790;-77
2021/07/31 12:32:56;;;;;;;4.20;1.98;;;25.60;54.70;;;;;;5060370;28;20231;-76
2021/07/31 12:35:57;;;;;;;8.55;2.30;;;25.70;54.70;;;;;;5062110;28;20080;-77
2021/07/31 12:38:25;;;;;;;4.25;2.08;;;25.90;54.50;;;;;;5038494;28;20040;-77
2021/07/31 12:40:59;;;;;;;8.30;2.55;;;26.00;54.30;;;;;;5062334;28;20130;-76
2021/07/31 12:43:26;;;;;;;7.70;2.70;;;26.10;54.10;;;;;;5064014;28;20391;-77
2021/07/31 12:45:54;;;;;;;3.25;1.88;;;26.10;54.10;;;;;;5065176;28;20043;-77
2021/07/31 12:48:20;;;;;;;5.32;2.22;;;26.20;54.10;;;;;;5064137;28;20032;-77
2021/07/31 12:50:46;;;;;;;5.80;2.35;;;26.30;54.10;;;;;;5058742;28;20188;-76
2021/07/31 12:53:14;;;;;;;4.55;1.63;;;26.30;53.90;;;;;;5053170;28;21358;-76
2021/07/31 12:55:41;;;;;;;5.18;2.30;;;26.40;53.60;;;;;;5065147;28;20032;-76
2021/07/31 12:58:07;;;;;;;4.18;2.13;;;26.60;53.50;;;;;;5066257;28;20086;-76
2021/07/31 13:00:37;;;;;;;5.47;2.03;;;26.60;53.30;;;;;;5065826;28;20043;-76